Time;durP1;ratioP1;P1;durP2;ratioP2;P2;SDS_P1;SDS_P2;PMS_P1;PMS_P2;Temp;Humidity;BMP_temperature;BMP_pressure;BME280_temperature;BME280_humidity;BME280_pressure;Samples;Min_cycle;Max_cycle;Signal;HPM_P1;HPM_P2
2023/01/29 00:00:01;;;;;;;28.02;17.38;;;;;;;;;;4930515;28;99391;-68
2023/01/29 00:02:27;;;;;;;27.90;17.05;;;;;;;;;;4931343;28;99511;-68
2023/01/29 00:04:53;;;;;;;32.25;17.40;;;;;;;;;;4935404;28;98186;-68
2023/01/29 00:07:24;;;;;;;;;;;;;;;;;;4929758;28;99753;-68
2023/01/29 00:09:50;;;;;;;28.25;16.40;;;;;;;;;;4932991;28;120804;-68
2023/01/29 00:12:16;;;;;;;25.98;17.15;;;;;;;;;;4930967;28;99561;-68
2023/01/29 00:14:43;;;;;;;29.95;16.75;;;;;;;;;;4916788;28;99799;-68
2023/01/29 00:17:09;;;;;;;27.42;17.02;;;;;;;;;;4929670;28;98556;-68
2023/01/29 00:19:35;;;;;;;30.33;17.48;;;;;;;;;;4931457;28;99462;-68
2023/01/29 00:22:02;;;;;;;29.30;17.42;;;;;;;;;;4931253;28;99209;-68
2023/01/29 00:24:28;;;;;;;30.08;16.60;;;;;;;;;;4934551;28;98522;-67
2023/01/29 00:26:54;;;;;;;27.88;17.85;;;;;;;;;;4931076;28;101138;-68
2023/01/29 00:29:21;;;;;;;29.13;17.88;;;;;;;;;;4931733;28;97989;-68
2023/01/29 00:31:47;;;;;;;30.95;17.88;;;;;;;;;;4931260;28;98558;-68
2023/01/29 00:34:13;;;;;;;29.90;17.70;;;;;;;;;;4930739;28;99855;-68
2023/01/29 00:36:40;;;;;;;30.60;17.73;;;;;;;;;;4930762;28;99311;-68
2023/01/29 00:39:09;;;;;;;28.80;16.88;;;;;;;;;;4930974;28;100315;-68
2023/01/29 00:49:51;;;;;;;30.70;17.27;;;;;;;;;;4931141;28;98523;-68
2023/01/29 00:52:23;;;;;;;29.45;18.02;;;;;;;;;;4929432;28;99269;-68
2023/01/29 00:54:53;;;;;;;27.95;17.35;;;;;;;;;;4931312;28;99761;-68
2023/01/29 00:57:20;;;;;;;31.52;17.35;;;;;;;;;;4929738;28;98599;-68
2023/01/29 00:59:46;;;;;;;28.35;17.33;;;;;;;;;;4929446;28;99442;-68
2023/01/29 01:05:01;;;;;;;30.02;17.17;;;;;;;;;;4930775;28;98692;-68
2023/01/29 01:07:27;;;;;;;29.88;16.77;;;;;;;;;;4930347;28;99560;-68
2023/01/29 01:12:39;;;;;;;37.08;17.67;;;;;;;;;;4929793;28;99217;-68
2023/01/29 01:15:05;;;;;;;30.92;16.80;;;;;;;;;;4930178;28;99669;-68
2023/01/29 01:17:31;;;;;;;27.33;16.15;;;;;;;;;;4930825;28;98491;-68
2023/01/29 01:19:58;;;;;;;27.80;15.75;;;;;;;;;;4931089;28;99237;-68
2023/01/29 01:22:24;;;;;;;25.95;16.27;;;;;;;;;;4930076;28;99926;-68
2023/01/29 01:24:50;;;;;;;27.70;15.98;;;;;;;;;;4930571;28;98558;-68
2023/01/29 01:27:18;;;;;;;29.75;16.60;;;;;;;;;;4929660;28;99329;-68
2023/01/29 01:29:45;;;;;;;28.35;16.58;;;;;;;;;;4930160;28;100258;-68
2023/01/29 01:32:11;;;;;;;27.35;17.00;;;;;;;;;;4932272;28;98677;-68
2023/01/29 01:34:38;;;;;;;31.98;16.45;;;;;;;;;;4929126;28;102537;-68
2023/01/29 01:37:04;;;;;;;27.27;17.73;;;;;;;;;;4930276;28;98851;-68
2023/01/29 01:39:30;;;;;;;29.75;16.73;;;;;;;;;;4930445;28;99379;-68
2023/01/29 01:41:56;;;;;;;28.63;17.25;;;;;;;;;;4930243;28;99524;-68
2023/01/29 01:44:41;;;;;;;24.48;16.42;;;;;;;;;;4930867;28;97865;-68
2023/01/29 01:47:08;;;;;;;28.42;17.63;;;;;;;;;;4928951;28;98642;-68
2023/01/29 01:49:34;;;;;;;29.70;17.48;;;;;;;;;;4929967;28;100437;-68
2023/01/29 01:52:00;;;;;;;28.33;16.55;;;;;;;;;;4929941;28;99249;-68
2023/01/29 01:54:28;;;;;;;29.50;16.80;;;;;;;;;;4933273;28;99942;-68
2023/01/29 01:57:03;;;;;;;25.42;17.05;;;;;;;;;;4930570;28;98523;-68
2023/01/29 01:59:31;;;;;;;34.55;17.77;;;;;;;;;;4930087;28;99492;-68
2023/01/29 02:01:57;;;;;;;32.20;16.92;;;;;;;;;;4929937;28;99791;-68
2023/01/29 02:09:57;;;;;;;25.95;16.00;;;;;;;;;;4930251;28;98730;-68
2023/01/29 02:12:23;;;;;;;26.83;16.50;;;;;;;;;;4929918;28;98533;-68
2023/01/29 02:14:50;;;;;;;29.27;16.92;;;;;;;;;;4932756;28;99372;-68
2023/01/29 02:17:18;;;;;;;27.42;16.85;;;;;;;;;;4929197;28;99175;-68
2023/01/29 02:20:04;;;;;;;27.17;17.05;;;;;;;;;;4928563;28;100007;-68
2023/01/29 02:22:40;;;;;;;30.92;17.13;;;;;;;;;;4919331;28;100101;-68
2023/01/29 02:25:15;;;;;;;24.42;15.20;;;;;;;;;;4931794;28;98513;-68
2023/01/29 02:27:47;;;;;;;28.70;17.38;;;;;;;;;;4933243;28;99148;-68
2023/01/29 02:30:19;;;;;;;29.17;16.42;;;;;;;;;;4932623;28;99728;-68
2023/01/29 02:32:57;;;;;;;28.35;16.48;;;;;;;;;;4933032;28;98503;-68
2023/01/29 02:35:30;;;;;;;25.83;16.05;;;;;;;;;;4933379;28;99230;-68
2023/01/29 02:38:16;;;;;;;25.60;16.13;;;;;;;;;;4934238;28;100657;-68
2023/01/29 02:40:51;;;;;;;25.80;15.75;;;;;;;;;;4932919;28;99457;-68
2023/01/29 02:43:17;;;;;;;31.30;17.48;;;;;;;;;;4932114;28;100639;-68
2023/01/29 02:45:47;;;;;;;26.42;16.40;;;;;;;;;;4932780;28;98851;-68
2023/01/29 02:48:16;;;;;;;26.42;16.45;;;;;;;;;;4932937;28;99166;-68
2023/01/29 02:50:44;;;;;;;27.20;17.02;;;;;;;;;;4932876;28;99117;-68
2023/01/29 02:53:36;;;;;;;30.60;17.70;;;;;;;;;;4933039;28;98678;-68
2023/01/29 02:56:12;;;;;;;24.95;15.77;;;;;;;;;;4929997;28;100437;-68
2023/01/29 02:58:41;;;;;;;32.45;17.10;;;;;;;;;;4931142;28;99923;-68
2023/01/29 03:01:13;;;;;;;29.85;17.92;;;;;;;;;;4936313;28;98319;-68
2023/01/29 03:03:41;;;;;;;30.92;18.45;;;;;;;;;;4932505;28;99886;-68
2023/01/29 03:06:17;;;;;;;29.73;18.25;;;;;;;;;;4931996;28;98709;-68
2023/01/29 03:08:48;;;;;;;30.33;17.85;;;;;;;;;;4932607;28;100227;-68
2023/01/29 03:11:16;;;;;;;31.35;18.38;;;;;;;;;;4932272;28;99754;-68
2023/01/29 03:13:45;;;;;;;33.60;18.55;;;;;;;;;;4932291;28;98640;-68
2023/01/29 03:16:24;;;;;;;30.75;18.55;;;;;;;;;;4932178;28;99205;-68
2023/01/29 03:18:55;;;;;;;32.40;18.42;;;;;;;;;;4932476;28;100594;-68
2023/01/29 03:32:29;;;;;;;33.10;18.60;;;;;;;;;;4931481;28;99942;-68
2023/01/29 03:35:01;;;;;;;33.67;18.63;;;;;;;;;;4931743;28;99219;-68
2023/01/29 03:37:31;;;;;;;34.05;19.73;;;;;;;;;;4931413;28;99997;-68
2023/01/29 03:39:58;;;;;;;36.35;20.40;;;;;;;;;;4930328;28;100040;-68
2023/01/29 03:42:32;;;;;;;32.47;18.85;;;;;;;;;;4932025;28;98537;-68
2023/01/29 03:45:10;;;;;;;37.00;19.20;;;;;;;;;;4932072;28;99565;-68
2023/01/29 03:48:01;;;;;;;37.75;18.63;;;;;;;;;;4934761;28;99850;-68
2023/01/29 03:50:27;;;;;;;31.58;19.17;;;;;;;;;;4932151;28;99336;-68
2023/01/29 03:52:53;;;;;;;31.23;18.75;;;;;;;;;;4931527;28;99554;-68
2023/01/29 03:55:20;;;;;;;30.67;18.67;;;;;;;;;;4930517;28;98548;-68
2023/01/29 03:57:52;;;;;;;30.55;18.52;;;;;;;;;;4931833;28;99338;-68
2023/01/29 04:00:22;;;;;;;31.48;18.50;;;;;;;;;;4930915;28;100385;-68
2023/01/29 04:02:56;;;;;;;43.65;20.20;;;;;;;;;;4930138;28;98943;-67
2023/01/29 04:05:24;;;;;;;35.75;20.15;;;;;;;;;;4931465;28;99378;-68
2023/01/29 04:07:53;;;;;;;33.08;20.20;;;;;;;;;;4929960;28;99822;-68
2023/01/29 04:10:21;;;;;;;31.80;19.33;;;;;;;;;;4934659;28;98497;-68
2023/01/29 04:12:55;;;;;;;31.45;20.10;;;;;;;;;;4931512;28;99499;-68
2023/01/29 04:15:22;;;;;;;35.50;19.30;;;;;;;;;;4915996;28;98891;-68
2023/01/29 04:17:51;;;;;;;35.67;19.45;;;;;;;;;;4931904;28;99804;-68
2023/01/29 04:20:19;;;;;;;33.03;19.55;;;;;;;;;;4931512;28;100677;-67
2023/01/29 04:22:47;;;;;;;38.55;19.92;;;;;;;;;;4931332;28;99354;-68
2023/01/29 04:25:15;;;;;;;35.08;19.55;;;;;;;;;;4931186;28;99474;-68
2023/01/29 04:28:00;;;;;;;32.70;18.98;;;;;;;;;;4931370;28;100287;-68
2023/01/29 04:30:47;;;;;;;34.67;20.10;;;;;;;;;;4933230;28;98615;-68
2023/01/29 04:33:13;;;;;;;34.90;19.20;;;;;;;;;;4930781;28;99688;-68
2023/01/29 04:35:39;;;;;;;36.22;19.92;;;;;;;;;;4931496;28;98546;-68
2023/01/29 04:38:24;;;;;;;31.08;20.25;;;;;;;;;;4931303;28;99281;-68
2023/01/29 04:40:53;;;;;;;36.83;19.65;;;;;;;;;;4930790;28;99784;-68
2023/01/29 04:43:22;;;;;;;39.22;21.02;;;;;;;;;;4931579;28;97744;-68
2023/01/29 04:45:55;;;;;;;38.17;21.35;;;;;;;;;;4931625;28;101786;-68
2023/01/29 04:48:25;;;;;;;34.75;20.50;;;;;;;;;;4928266;28;99796;-68
2023/01/29 04:51:04;;;;;;;33.55;20.85;;;;;;;;;;4930772;28;99200;-68
2023/01/29 04:53:30;;;;;;;32.38;18.67;;;;;;;;;;4933426;28;100035;-68
2023/01/29 04:56:09;;;;;;;35.03;20.23;;;;;;;;;;4931032;28;98605;-67
2023/01/29 04:58:38;;;;;;;38.50;21.23;;;;;;;;;;4930921;28;99275;-68
2023/01/29 05:01:06;;;;;;;33.47;19.75;;;;;;;;;;4930771;28;100484;-68
2023/01/29 05:03:33;;;;;;;33.90;19.38;;;;;;;;;;4930986;28;98984;-68
2023/01/29 05:06:00;;;;;;;31.23;20.20;;;;;;;;;;4930062;28;99342;-68
2023/01/29 05:08:28;;;;;;;32.22;19.40;;;;;;;;;;4930846;28;98736;-68
2023/01/29 05:10:55;;;;;;;31.77;19.52;;;;;;;;;;4930779;28;98546;-68
2023/01/29 05:13:23;;;;;;;34.72;21.48;;;;;;;;;;4930705;28;99364;-68
2023/01/29 05:15:54;;;;;;;33.80;20.73;;;;;;;;;;4933164;28;100255;-68
2023/01/29 05:18:21;;;;;;;34.97;20.77;;;;;;;;;;4930600;28;99979;-68
2023/01/29 05:20:48;;;;;;;31.85;19.70;;;;;;;;;;4930838;28;99524;-68
2023/01/29 05:23:18;;;;;;;29.05;18.95;;;;;;;;;;4930928;28;98509;-68
2023/01/29 05:25:45;;;;;;;34.08;20.58;;;;;;;;;;4930911;28;99580;-67
2023/01/29 05:28:17;;;;;;;33.40;20.33;;;;;;;;;;4930207;28;99561;-68
2023/01/29 05:30:45;;;;;;;34.47;20.00;;;;;;;;;;4930592;28;98675;-68
2023/01/29 05:33:16;;;;;;;36.15;20.63;;;;;;;;;;4930531;28;99350;-68
2023/01/29 05:35:42;;;;;;;31.90;20.75;;;;;;;;;;4929265;28;99976;-68
2023/01/29 05:38:09;;;;;;;31.30;18.75;;;;;;;;;;4923415;28;98609;-67
2023/01/29 05:40:36;;;;;;;30.83;18.88;;;;;;;;;;4909045;28;100533;-68
2023/01/29 05:43:03;;;;;;;30.77;19.85;;;;;;;;;;4909786;28;98643;-68
2023/01/29 05:45:29;;;;;;;31.17;19.83;;;;;;;;;;4915086;28;99748;-67
2023/01/29 05:47:56;;;;;;;33.88;18.60;;;;;;;;;;4929968;28;99694;-68
2023/01/29 05:50:23;;;;;;;32.10;19.02;;;;;;;;;;4929060;28;98526;-68
2023/01/29 05:52:54;;;;;;;31.05;18.42;;;;;;;;;;4929993;28;99214;-68
2023/01/29 05:55:21;;;;;;;30.40;18.88;;;;;;;;;;4930104;28;99527;-68
2023/01/29 05:57:47;;;;;;;34.35;20.23;;;;;;;;;;4930522;28;97785;-68
2023/01/29 06:00:13;;;;;;;28.70;17.90;;;;;;;;;;4934972;28;98543;-68
2023/01/29 06:02:40;;;;;;;30.30;18.60;;;;;;;;;;4933872;28;98522;-68
2023/01/29 06:05:07;;;;;;;35.88;19.85;;;;;;;;;;4933187;28;99270;-68
2023/01/29 06:07:34;;;;;;;30.60;19.17;;;;;;;;;;4932813;28;100036;-68
2023/01/29 06:10:02;;;;;;;35.53;19.88;;;;;;;;;;4932263;28;98852;-68
2023/01/29 06:12:28;;;;;;;29.02;18.65;;;;;;;;;;4933222;28;99453;-67
2023/01/29 06:14:54;;;;;;;27.58;17.80;;;;;;;;;;4916947;28;99508;-67
2023/01/29 06:17:21;;;;;;;28.42;18.65;;;;;;;;;;4932021;28;98639;-67
2023/01/29 06:19:47;;;;;;;28.27;18.10;;;;;;;;;;4933855;28;100242;-67
2023/01/29 06:22:13;;;;;;;31.58;19.10;;;;;;;;;;4936925;28;99418;-67
2023/01/29 06:24:39;;;;;;;31.52;18.77;;;;;;;;;;4933383;28;98873;-67
2023/01/29 06:27:06;;;;;;;28.77;18.30;;;;;;;;;;4933330;28;100548;-67
2023/01/29 06:29:32;;;;;;;29.05;18.02;;;;;;;;;;4932763;28;99363;-67
2023/01/29 06:31:59;;;;;;;35.00;18.83;;;;;;;;;;4933438;28;100044;-67
2023/01/29 06:34:25;;;;;;;28.77;18.50;;;;;;;;;;4932950;28;100816;-67
2023/01/29 06:36:51;;;;;;;35.50;18.77;;;;;;;;;;4928546;28;98540;-67
2023/01/29 06:39:18;;;;;;;33.10;17.95;;;;;;;;;;4912310;28;99799;-67
2023/01/29 06:41:45;;;;;;;28.35;17.52;;;;;;;;;;4916720;28;99485;-67
2023/01/29 06:44:11;;;;;;;29.17;17.83;;;;;;;;;;4914055;28;99436;-67
2023/01/29 06:46:37;;;;;;;27.75;17.50;;;;;;;;;;4927815;28;99182;-67
2023/01/29 06:49:04;;;;;;;27.45;18.00;;;;;;;;;;4931637;28;98641;-67
2023/01/29 06:51:30;;;;;;;30.10;18.67;;;;;;;;;;4933392;28;99662;-67
2023/01/29 06:53:56;;;;;;;26.95;16.42;;;;;;;;;;4932263;28;100810;-67
2023/01/29 06:56:23;;;;;;;27.30;17.70;;;;;;;;;;4932823;28;98499;-67
2023/01/29 06:58:49;;;;;;;27.48;17.67;;;;;;;;;;4933009;28;99672;-67
2023/01/29 07:01:16;;;;;;;32.42;18.08;;;;;;;;;;4931734;28;100504;-67
2023/01/29 07:04:00;;;;;;;32.30;18.45;;;;;;;;;;4936405;28;99217;-68
2023/01/29 07:06:27;;;;;;;26.70;17.20;;;;;;;;;;4931946;28;99697;-68
2023/01/29 07:08:53;;;;;;;27.42;17.08;;;;;;;;;;4932177;28;98597;-68
2023/01/29 07:11:19;;;;;;;31.85;17.35;;;;;;;;;;4931967;28;99236;-68
2023/01/29 07:13:46;;;;;;;28.42;16.90;;;;;;;;;;4932323;28;100587;-68
2023/01/29 07:16:12;;;;;;;26.88;15.98;;;;;;;;;;4932587;28;98554;-68
2023/01/29 07:18:38;;;;;;;28.25;17.08;;;;;;;;;;4931775;28;99320;-67
2023/01/29 07:21:06;;;;;;;29.75;18.05;;;;;;;;;;4930655;28;99818;-68
2023/01/29 07:23:32;;;;;;;29.92;17.45;;;;;;;;;;4932265;28;98530;-67
2023/01/29 07:25:59;;;;;;;27.05;16.77;;;;;;;;;;4935352;28;99160;-68
2023/01/29 07:28:26;;;;;;;30.98;19.00;;;;;;;;;;4932451;28;98783;-68
2023/01/29 07:30:56;;;;;;;27.48;17.20;;;;;;;;;;4932450;28;99214;-67
2023/01/29 07:33:23;;;;;;;30.02;17.75;;;;;;;;;;4931808;28;99397;-68
2023/01/29 07:35:49;;;;;;;27.60;16.90;;;;;;;;;;4928998;28;97902;-68
2023/01/29 07:38:15;;;;;;;28.92;17.65;;;;;;;;;;4927188;28;98897;-67
2023/01/29 07:40:41;;;;;;;28.30;18.00;;;;;;;;;;4912465;28;99515;-68
2023/01/29 07:43:08;;;;;;;33.80;18.73;;;;;;;;;;4926900;28;99275;-68
2023/01/29 07:45:35;;;;;;;30.33;18.02;;;;;;;;;;4917810;28;101521;-68
2023/01/29 07:48:03;;;;;;;32.05;17.77;;;;;;;;;;4935441;28;102700;-68
2023/01/29 07:50:30;;;;;;;32.83;17.77;;;;;;;;;;4931488;28;100157;-68
2023/01/29 07:52:57;;;;;;;29.63;19.10;;;;;;;;;;4931520;28;99527;-68
2023/01/29 07:55:23;;;;;;;31.35;17.63;;;;;;;;;;4931700;28;98631;-68
2023/01/29 07:57:56;;;;;;;28.85;17.75;;;;;;;;;;4932099;28;100978;-68
2023/01/29 08:00:23;;;;;;;31.13;18.20;;;;;;;;;;4931924;28;98767;-68
2023/01/29 08:02:49;;;;;;;27.00;16.33;;;;;;;;;;4931999;28;98526;-68
2023/01/29 08:05:15;;;;;;;29.38;18.15;;;;;;;;;;4930083;28;99312;-67
2023/01/29 08:07:42;;;;;;;30.20;16.42;;;;;;;;;;4930839;28;100199;-68
2023/01/29 08:10:10;;;;;;;28.10;16.85;;;;;;;;;;4934679;28;98570;-67
2023/01/29 08:12:36;;;;;;;26.17;16.25;;;;;;;;;;4931526;28;100054;-67
2023/01/29 08:15:02;;;;;;;27.40;16.63;;;;;;;;;;4931222;28;98623;-67
2023/01/29 08:17:29;;;;;;;31.98;17.58;;;;;;;;;;4930666;28;99024;-67
2023/01/29 08:19:55;;;;;;;27.00;17.80;;;;;;;;;;4931502;28;100667;-68
2023/01/29 08:22:21;;;;;;;25.42;16.80;;;;;;;;;;4931659;28;98479;-67
2023/01/29 08:24:48;;;;;;;29.27;18.92;;;;;;;;;;4931752;28;99314;-67
2023/01/29 08:27:25;;;;;;;26.27;17.20;;;;;;;;;;4929717;28;99461;-68
2023/01/29 08:29:51;;;;;;;31.90;17.50;;;;;;;;;;4931830;28;98473;-67
2023/01/29 08:32:18;;;;;;;32.25;18.20;;;;;;;;;;4933801;28;99523;-68
2023/01/29 08:34:44;;;;;;;34.03;19.48;;;;;;;;;;4931162;28;98579;-67
2023/01/29 08:37:10;;;;;;;31.95;17.35;;;;;;;;;;4927326;28;99232;-68
2023/01/29 08:39:37;;;;;;;29.23;16.80;;;;;;;;;;4912032;28;99813;-67
2023/01/29 08:42:03;;;;;;;27.15;17.83;;;;;;;;;;4911970;28;98577;-68
2023/01/29 08:44:29;;;;;;;25.88;16.85;;;;;;;;;;4912229;28;101725;-68
2023/01/29 08:46:55;;;;;;;27.98;17.42;;;;;;;;;;4927382;28;99901;-68
2023/01/29 08:49:22;;;;;;;28.98;18.13;;;;;;;;;;4931939;28;97759;-68
2023/01/29 08:51:50;;;;;;;31.50;18.00;;;;;;;;;;4934173;28;98592;-68
2023/01/29 08:54:16;;;;;;;28.83;16.83;;;;;;;;;;4931093;28;98552;-68
2023/01/29 08:56:42;;;;;;;28.00;17.02;;;;;;;;;;4930875;28;99388;-68
2023/01/29 08:59:09;;;;;;;27.33;16.10;;;;;;;;;;4930516;28;100863;-68
2023/01/29 09:01:35;;;;;;;28.33;17.05;;;;;;;;;;4931168;28;98504;-68
2023/01/29 09:04:02;;;;;;;24.65;16.58;;;;;;;;;;4931033;28;99231;-68
2023/01/29 09:06:28;;;;;;;27.65;17.80;;;;;;;;;;4930218;28;99617;-67
2023/01/29 09:08:54;;;;;;;27.50;17.80;;;;;;;;;;4929335;28;98964;-67
2023/01/29 09:11:21;;;;;;;31.80;17.80;;;;;;;;;;4930801;28;99245;-68
2023/01/29 09:13:47;;;;;;;29.67;16.63;;;;;;;;;;4927019;28;98846;-68
2023/01/29 09:16:13;;;;;;;29.70;18.25;;;;;;;;;;4920240;28;98716;-68
2023/01/29 09:18:40;;;;;;;27.30;16.70;;;;;;;;;;4930445;28;99786;-68
2023/01/29 09:21:06;;;;;;;26.17;18.00;;;;;;;;;;4930047;28;99350;-68
2023/01/29 09:23:32;;;;;;;32.47;17.40;;;;;;;;;;4930660;28;100025;-68
2023/01/29 09:25:59;;;;;;;30.10;16.58;;;;;;;;;;4930077;28;99226;-68
2023/01/29 09:28:25;;;;;;;33.72;20.35;;;;;;;;;;4930279;28;98524;-67
2023/01/29 09:30:52;;;;;;;27.02;17.15;;;;;;;;;;4930683;28;99422;-68
2023/01/29 09:33:18;;;;;;;31.85;17.00;;;;;;;;;;4930140;28;99633;-68
2023/01/29 09:35:45;;;;;;;28.88;16.60;;;;;;;;;;4932931;28;98530;-68
2023/01/29 09:38:12;;;;;;;28.92;16.63;;;;;;;;;;4930937;28;99814;-68
2023/01/29 09:40:38;;;;;;;29.67;17.15;;;;;;;;;;4930265;28;98627;-68
2023/01/29 09:43:23;;;;;;;29.98;16.75;;;;;;;;;;4930051;28;99315;-68
2023/01/29 09:45:54;;;;;;;30.30;15.90;;;;;;;;;;4929256;28;100470;-68
2023/01/29 09:48:22;;;;;;;29.67;16.55;;;;;;;;;;4930452;28;98643;-68
2023/01/29 09:50:50;;;;;;;25.13;16.70;;;;;;;;;;4930385;28;99222;-68
2023/01/29 09:53:19;;;;;;;24.23;15.68;;;;;;;;;;4928461;28;99483;-68
2023/01/29 09:55:56;;;;;;;31.52;16.38;;;;;;;;;;4930180;28;98560;-67
2023/01/29 09:58:22;;;;;;;30.77;17.27;;;;;;;;;;4933476;28;98919;-68
2023/01/29 10:00:52;;;;;;;28.60;15.70;;;;;;;;;;4929810;28;98511;-68
2023/01/29 10:03:18;;;;;;;25.17;16.27;;;;;;;;;;4930465;28;99552;-67
2023/01/29 10:05:45;;;;;;;26.58;16.52;;;;;;;;;;4928858;28;99776;-68
2023/01/29 10:08:11;;;;;;;27.00;16.33;;;;;;;;;;4930109;28;98615;-68
2023/01/29 10:11:01;;;;;;;25.73;15.55;;;;;;;;;;4928225;28;99251;-68
2023/01/29 10:13:30;;;;;;;28.77;16.38;;;;;;;;;;4929740;28;99645;-68
2023/01/29 10:16:14;;;;;;;34.10;17.10;;;;;;;;;;4929786;28;98547;-68
2023/01/29 10:18:44;;;;;;;27.50;16.35;;;;;;;;;;4928870;28;99084;-68
2023/01/29 10:21:18;;;;;;;28.10;17.00;;;;;;;;;;4932645;28;99794;-68
2023/01/29 10:23:52;;;;;;;35.45;16.38;;;;;;;;;;4930089;28;99513;-68
2023/01/29 10:26:22;;;;;;;26.90;16.02;;;;;;;;;;4929586;28;100600;-68
2023/01/29 10:28:49;;;;;;;25.35;16.45;;;;;;;;;;4930196;28;97832;-68
2023/01/29 10:31:26;;;;;;;26.17;16.38;;;;;;;;;;4928165;28;99339;-68
2023/01/29 10:33:55;;;;;;;30.80;17.55;;;;;;;;;;4929512;28;99578;-68
2023/01/29 10:36:48;;;;;;;31.67;17.63;;;;;;;;;;4920803;28;99791;-68
2023/01/29 10:39:22;;;;;;;31.42;18.20;;;;;;;;;;4910011;28;100402;-68
2023/01/29 10:42:11;;;;;;;31.58;17.23;;;;;;;;;;4910108;28;99588;-68
2023/01/29 10:44:44;;;;;;;27.15;16.30;;;;;;;;;;4905928;28;98584;-68
2023/01/29 10:47:29;;;;;;;30.23;16.65;;;;;;;;;;4930024;28;99560;-68
2023/01/29 10:50:11;;;;;;;30.98;16.48;;;;;;;;;;4932747;28;98748;-68
2023/01/29 10:52:37;;;;;;;30.65;16.88;;;;;;;;;;4932883;28;99274;-68
2023/01/29 10:55:03;;;;;;;27.85;16.77;;;;;;;;;;4933013;28;99406;-68
2023/01/29 10:57:39;;;;;;;28.95;17.67;;;;;;;;;;4932661;28;98571;-68
2023/01/29 11:00:43;;;;;;;29.50;17.88;;;;;;;;;;4931109;28;99266;-68
2023/01/29 11:03:20;;;;;;;32.65;17.73;;;;;;;;;;4890581;28;100323;-68
2023/01/29 11:05:53;;;;;;;30.00;17.63;;;;;;;;;;4894245;28;98667;-68
2023/01/29 11:08:45;;;;;;;30.13;17.98;;;;;;;;;;4890927;28;99533;-68
2023/01/29 11:11:12;;;;;;;25.23;17.25;;;;;;;;;;4871800;28;98639;-68
2023/01/29 11:13:47;;;;;;;27.92;18.00;;;;;;;;;;4875759;28;99288;-68
2023/01/29 11:16:13;;;;;;;33.47;18.30;;;;;;;;;;4890988;28;100172;-68
2023/01/29 11:18:50;;;;;;;29.45;19.33;;;;;;;;;;4891397;28;98533;-67
2023/01/29 11:21:16;;;;;;;36.75;19.58;;;;;;;;;;4892077;28;99474;-68
2023/01/29 11:23:43;;;;;;;30.40;18.50;;;;;;;;;;4891398;28;99729;-68
2023/01/29 11:26:16;;;;;;;30.20;18.77;;;;;;;;;;4891724;28;98527;-67
2023/01/29 11:28:44;;;;;;;31.38;19.63;;;;;;;;;;4893957;28;99467;-68
2023/01/29 11:31:16;;;;;;;33.25;20.15;;;;;;;;;;4891401;28;100237;-68
2023/01/29 11:33:43;;;;;;;30.95;20.50;;;;;;;;;;4906368;28;99351;-68
2023/01/29 11:36:20;;;;;;;31.15;20.00;;;;;;;;;;4926228;28;99607;-68
2023/01/29 11:38:46;;;;;;;33.63;20.23;;;;;;;;;;4921667;28;98522;-68
2023/01/29 11:41:21;;;;;;;35.92;19.98;;;;;;;;;;4912727;28;99314;-67
2023/01/29 11:43:47;;;;;;;32.65;20.50;;;;;;;;;;4912280;28;99621;-68
2023/01/29 11:46:14;;;;;;;31.08;20.30;;;;;;;;;;4923679;28;98093;-68
2023/01/29 11:48:53;;;;;;;32.53;20.05;;;;;;;;;;4932144;28;98688;-68
2023/01/29 11:51:28;;;;;;;33.95;21.35;;;;;;;;;;4933842;28;99484;-68
2023/01/29 11:53:56;;;;;;;32.75;19.65;;;;;;;;;;4931577;28;99555;-68
2023/01/29 11:56:28;;;;;;;31.98;20.23;;;;;;;;;;4930192;28;99521;-68
2023/01/29 11:58:56;;;;;;;31.70;20.58;;;;;;;;;;4930169;28;98538;-68
2023/01/29 12:01:28;;;;;;;32.13;19.95;;;;;;;;;;4932056;28;100464;-67
2023/01/29 12:03:54;;;;;;;33.65;20.52;;;;;;;;;;4931583;28;99563;-68
2023/01/29 12:06:29;;;;;;;34.53;20.92;;;;;;;;;;4929553;28;98600;-68
2023/01/29 12:08:57;;;;;;;36.75;22.00;;;;;;;;;;4931521;28;99564;-68
2023/01/29 12:11:26;;;;;;;35.33;21.63;;;;;;;;;;4931984;28;100089;-68
2023/01/29 12:13:53;;;;;;;32.00;20.90;;;;;;;;;;4927315;28;98559;-68
2023/01/29 12:16:22;;;;;;;33.17;20.60;;;;;;;;;;4921522;28;99543;-68
2023/01/29 12:18:53;;;;;;;33.33;21.02;;;;;;;;;;4931076;28;99273;-68
2023/01/29 12:21:29;;;;;;;46.10;21.85;;;;;;;;;;4931081;28;99971;-68
2023/01/29 12:24:14;;;;;;;35.45;22.63;;;;;;;;;;4931230;28;99922;-68
2023/01/29 12:26:52;;;;;;;38.42;23.13;;;;;;;;;;4931241;28;98479;-67
2023/01/29 12:29:37;;;;;;;36.42;21.83;;;;;;;;;;4929813;28;99326;-68
2023/01/29 12:32:04;;;;;;;39.72;23.10;;;;;;;;;;4931332;28;99482;-68
2023/01/29 12:34:44;;;;;;;32.90;22.48;;;;;;;;;;4931472;28;98624;-68
2023/01/29 12:37:10;;;;;;;36.53;22.10;;;;;;;;;;4920453;28;99453;-68
2023/01/29 12:39:36;;;;;;;38.47;22.83;;;;;;;;;;4912165;28;98585;-68
2023/01/29 12:42:07;;;;;;;41.85;22.88;;;;;;;;;;4911700;28;99377;-68
2023/01/29 12:44:43;;;;;;;38.50;22.83;;;;;;;;;;4911285;28;100341;-68
2023/01/29 12:47:24;;;;;;;42.35;23.55;;;;;;;;;;4930050;28;98477;-68
2023/01/29 12:49:50;;;;;;;;;;;;;;;;;;4930428;28;99358;-68
2023/01/29 12:52:33;;;;;;;35.75;22.73;;;;;;;;;;4932256;28;130209;-67
2023/01/29 12:55:02;;;;;;;41.45;22.15;;;;;;;;;;4929809;28;98554;-68
2023/01/29 12:57:37;;;;;;;40.55;23.00;;;;;;;;;;4932428;28;99484;-68
2023/01/29 13:00:08;;;;;;;37.97;22.75;;;;;;;;;;4930992;28;98526;-68
2023/01/29 13:02:38;;;;;;;37.33;22.73;;;;;;;;;;4931411;28;99344;-68
2023/01/29 13:05:05;;;;;;;;;;;;;;;;;;4929421;28;99489;-68
2023/01/29 13:07:33;;;;;;;39.60;22.70;;;;;;;;;;4930649;28;121355;-67
2023/01/29 13:10:04;;;;;;;46.05;24.10;;;;;;;;;;4929499;28;99520;-68
2023/01/29 13:12:32;;;;;;;41.33;23.83;;;;;;;;;;4930831;28;101991;-68
2023/01/29 13:15:01;;;;;;;40.55;23.45;;;;;;;;;;4930963;28;98506;-68
2023/01/29 13:17:40;;;;;;;36.65;22.73;;;;;;;;;;4911414;28;100380;-68
2023/01/29 13:20:17;;;;;;;41.20;22.98;;;;;;;;;;4914365;28;99543;-68
2023/01/29 13:22:45;;;;;;;39.72;24.30;;;;;;;;;;4911369;28;99728;-68
2023/01/29 13:25:15;;;;;;;34.42;21.92;;;;;;;;;;4911364;28;100579;-68
2023/01/29 13:27:44;;;;;;;39.50;22.90;;;;;;;;;;4926847;28;97795;-68
2023/01/29 13:30:27;;;;;;;36.30;23.25;;;;;;;;;;4910783;28;98668;-68
2023/01/29 13:32:55;;;;;;;39.78;23.02;;;;;;;;;;4910801;28;100191;-68
2023/01/29 13:35:22;;;;;;;38.53;23.52;;;;;;;;;;4910651;28;99322;-68
2023/01/29 13:37:52;;;;;;;39.28;22.45;;;;;;;;;;4910918;28;100178;-68
2023/01/29 13:40:29;;;;;;;42.22;22.42;;;;;;;;;;4925655;28;99541;-68
2023/01/29 13:42:55;;;;;;;35.28;22.75;;;;;;;;;;4930622;28;98506;-68
2023/01/29 13:45:31;;;;;;;41.08;23.27;;;;;;;;;;4928811;28;99936;-68
2023/01/29 13:48:27;;;;;;;38.03;22.90;;;;;;;;;;4930247;28;98743;-68
2023/01/29 13:50:54;;;;;;;37.53;22.80;;;;;;;;;;4920951;28;99251;-68
2023/01/29 13:53:25;;;;;;;39.88;23.33;;;;;;;;;;4929091;28;99333;-68
2023/01/29 13:55:52;;;;;;;45.10;23.88;;;;;;;;;;4930434;28;98735;-68
2023/01/29 13:58:30;;;;;;;37.15;22.45;;;;;;;;;;4930163;28;99274;-68
2023/01/29 14:00:57;;;;;;;41.65;23.35;;;;;;;;;;4929991;28;100331;-68
2023/01/29 14:03:24;;;;;;;38.45;23.42;;;;;;;;;;4929965;28;98525;-68
2023/01/29 14:05:53;;;;;;;40.58;23.80;;;;;;;;;;4932366;28;99227;-68
2023/01/29 14:08:34;;;;;;;35.45;22.42;;;;;;;;;;4929925;28;98594;-68
2023/01/29 14:11:27;;;;;;;31.95;21.15;;;;;;;;;;4929145;28;102411;-68
2023/01/29 14:13:53;;;;;;;34.30;22.15;;;;;;;;;;4926885;28;99836;-68
2023/01/29 14:16:20;;;;;;;39.53;22.83;;;;;;;;;;4929914;28;98546;-68
2023/01/29 14:18:56;;;;;;;37.00;22.40;;;;;;;;;;4929586;28;100794;-67
2023/01/29 14:21:27;;;;;;;34.58;21.23;;;;;;;;;;4932329;28;102043;-68
2023/01/29 14:23:53;;;;;;;;;;;;;;;;;;4933644;28;98571;-68
2023/01/29 14:26:27;;;;;;;36.72;21.80;;;;;;;;;;4934328;28;129565;-68
2023/01/29 14:28:56;;;;;;;33.17;21.80;;;;;;;;;;4936207;28;99513;-68
2023/01/29 14:31:49;;;;;;;42.22;22.60;;;;;;;;;;4933398;28;99219;-68
2023/01/29 14:34:21;;;;;;;41.22;21.70;;;;;;;;;;4929749;28;99835;-68
2023/01/29 14:36:54;;;;;;;45.55;22.20;;;;;;;;;;4929287;28;98640;-68
2023/01/29 14:39:26;;;;;;;38.28;20.85;;;;;;;;;;4917866;28;100187;-68
2023/01/29 14:41:52;;;;;;;39.17;22.13;;;;;;;;;;4913432;28;99752;-68
2023/01/29 14:44:54;;;;;;;33.42;21.13;;;;;;;;;;4914337;28;97734;-68
2023/01/29 14:47:26;;;;;;;37.53;21.77;;;;;;;;;;4891578;28;99933;-68
2023/01/29 14:49:57;;;;;;;35.88;22.20;;;;;;;;;;4891722;28;100776;-68
2023/01/29 14:52:27;;;;;;;35.95;21.02;;;;;;;;;;4894866;28;99284;-68
2023/01/29 14:54:56;;;;;;;34.77;21.00;;;;;;;;;;4891900;28;99566;-68
2023/01/29 14:57:22;;;;;;;37.58;22.55;;;;;;;;;;4891787;28;98880;-68
2023/01/29 14:59:59;;;;;;;34.75;21.83;;;;;;;;;;4892224;28;99730;-68
2023/01/29 15:02:31;;;;;;;33.97;22.15;;;;;;;;;;4891286;28;99466;-68